createdAt,value
2023-04-23T00:00:13.732Z,100.00
2023-04-23T00:02:44.588Z,100.00
2023-04-23T00:05:16.632Z,100.00
2023-04-23T00:07:43.415Z,100.00
2023-04-23T00:10:10.669Z,100.00
2023-04-23T00:12:37.868Z,100.00
2023-04-23T00:15:06.887Z,100.00
2023-04-23T00:17:33.618Z,100.00
2023-04-23T00:20:00.246Z,100.00
2023-04-23T00:22:27.779Z,100.00
2023-04-23T00:24:54.449Z,100.00
2023-04-23T00:27:21.365Z,100.00
2023-04-23T00:29:48.035Z,100.00
2023-04-23T00:32:15.066Z,100.00
2023-04-23T00:34:42.046Z,100.00
2023-04-23T00:37:08.981Z,100.00
2023-04-23T00:39:37.606Z,100.00
2023-04-23T00:42:11.464Z,100.00
2023-04-23T00:44:39.124Z,100.00
2023-04-23T00:47:07.192Z,100.00
2023-04-23T00:49:36.300Z,100.00
2023-04-23T00:52:04.349Z,100.00
2023-04-23T00:54:31.174Z,100.00
2023-04-23T00:56:58.557Z,100.00
2023-04-23T00:59:29.263Z,100.00
2023-04-23T01:01:56.787Z,100.00
2023-04-23T01:04:28.060Z,100.00
2023-04-23T01:06:55.843Z,100.00
2023-04-23T01:09:23.772Z,100.00
2023-04-23T01:11:51.585Z,100.00
2023-04-23T01:14:18.310Z,100.00
2023-04-23T01:16:45.635Z,100.00
2023-04-23T01:19:17.038Z,100.00
2023-04-23T01:21:44.020Z,100.00
2023-04-23T01:24:11.482Z,100.00
2023-04-23T01:26:39.641Z,100.00
2023-04-23T01:29:07.120Z,100.00
2023-04-23T01:31:34.606Z,100.00
2023-04-23T01:34:02.247Z,100.00
2023-04-23T01:36:30.271Z,100.00
2023-04-23T01:38:56.939Z,100.00
2023-04-23T01:41:23.880Z,100.00
2023-04-23T01:43:50.658Z,100.00
2023-04-23T01:46:17.587Z,100.00
2023-04-23T01:48:44.368Z,100.00
2023-04-23T01:51:11.107Z,100.00
2023-04-23T01:53:37.800Z,100.00
2023-04-23T01:56:07.546Z,100.00
2023-04-23T01:58:34.166Z,100.00
2023-04-23T02:01:00.947Z,100.00
2023-04-23T02:03:30.176Z,100.00
2023-04-23T02:05:58.471Z,100.00
2023-04-23T02:08:26.361Z,100.00
2023-04-23T02:10:53.058Z,100.00
2023-04-23T02:13:19.867Z,100.00
2023-04-23T02:15:46.628Z,100.00
2023-04-23T02:18:13.313Z,100.00
2023-04-23T02:20:41.354Z,100.00
2023-04-23T02:23:08.899Z,100.00
2023-04-23T02:25:38.709Z,100.00
2023-04-23T02:28:07.740Z,100.00
2023-04-23T02:30:36.798Z,100.00
2023-04-23T02:33:03.897Z,100.00
2023-04-23T02:35:31.598Z,100.00
2023-04-23T02:37:58.401Z,100.00
2023-04-23T02:40:25.173Z,100.00
2023-04-23T02:42:51.793Z,100.00
2023-04-23T02:45:18.427Z,100.00
2023-04-23T02:47:45.361Z,100.00
2023-04-23T02:50:12.188Z,100.00
2023-04-23T02:52:38.858Z,100.00
2023-04-23T02:55:07.202Z,100.00
2023-04-23T02:57:34.515Z,100.00
2023-04-23T03:00:01.242Z,100.00
2023-04-23T03:02:27.934Z,100.00
2023-04-23T03:04:55.363Z,100.00
2023-04-23T03:07:22.259Z,100.00
2023-04-23T03:09:48.917Z,100.00
2023-04-23T03:12:16.146Z,100.00
2023-04-23T03:14:42.985Z,100.00
2023-04-23T03:17:10.127Z,100.00
2023-04-23T03:19:36.970Z,100.00
2023-04-23T03:22:05.943Z,100.00
2023-04-23T03:24:36.196Z,100.00
2023-04-23T03:27:02.862Z,100.00
2023-04-23T03:29:29.582Z,100.00
2023-04-23T03:31:56.780Z,100.00
2023-04-23T03:34:23.496Z,100.00
2023-04-23T03:36:51.164Z,100.00
2023-04-23T03:39:19.094Z,100.00
2023-04-23T03:41:46.237Z,100.00
2023-04-23T03:44:12.825Z,100.00
2023-04-23T03:46:39.507Z,100.00
2023-04-23T03:49:06.352Z,100.00
2023-04-23T03:51:32.996Z,100.00
2023-04-23T03:53:59.655Z,100.00
2023-04-23T03:56:27.207Z,100.00
2023-04-23T03:58:54.036Z,100.00
2023-04-23T04:01:20.659Z,100.00
2023-04-23T04:03:47.458Z,100.00
2023-04-23T04:06:14.329Z,100.00
2023-04-23T04:08:41.061Z,100.00
2023-04-23T04:11:08.671Z,100.00
2023-04-23T04:13:35.350Z,100.00
2023-04-23T04:16:02.311Z,100.00
2023-04-23T04:18:28.979Z,100.00
2023-04-23T04:20:55.720Z,100.00
2023-04-23T04:23:22.471Z,100.00
2023-04-23T04:25:50.959Z,100.00
2023-04-23T04:28:17.713Z,100.00
2023-04-23T04:30:44.748Z,100.00
2023-04-23T04:33:11.481Z,100.00
2023-04-23T04:35:38.118Z,100.00
2023-04-23T04:38:04.790Z,100.00
2023-04-23T04:40:31.590Z,100.00
2023-04-23T04:43:00.177Z,100.00
2023-04-23T04:45:26.893Z,100.00
2023-04-23T04:47:53.750Z,100.00
2023-04-23T04:50:20.588Z,100.00
2023-04-23T04:52:47.452Z,100.00
2023-04-23T04:55:14.179Z,100.00
2023-04-23T04:57:40.898Z,100.00
2023-04-23T05:00:20.043Z,100.00
2023-04-23T05:02:47.915Z,100.00
2023-04-23T05:05:15.200Z,100.00
2023-04-23T05:07:42.088Z,100.00
2023-04-23T05:10:09.269Z,100.00
2023-04-23T05:12:37.239Z,100.00
2023-04-23T05:15:04.676Z,100.00
2023-04-23T05:17:31.458Z,100.00
2023-04-23T05:19:58.225Z,100.00
2023-04-23T05:22:25.130Z,100.00
2023-04-23T05:24:51.814Z,100.00
2023-04-23T05:27:18.851Z,100.00
2023-04-23T05:29:45.544Z,100.00
2023-04-23T05:32:15.766Z,100.00
2023-04-23T05:34:42.853Z,100.00
2023-04-23T05:37:09.736Z,100.00
2023-04-23T05:39:36.372Z,100.00
2023-04-23T05:42:03.134Z,100.00
2023-04-23T05:44:30.054Z,100.00
2023-04-23T05:46:56.885Z,100.00
2023-04-23T05:49:23.701Z,100.00
2023-04-23T05:51:51.911Z,100.00
2023-04-23T05:54:19.222Z,100.00
2023-04-23T05:56:48.781Z,100.00
2023-04-23T05:59:15.459Z,100.00
2023-04-23T06:01:42.362Z,100.00
2023-04-23T06:04:09.596Z,100.00
2023-04-23T06:06:36.575Z,100.00
2023-04-23T06:09:04.650Z,100.00
2023-04-23T06:11:36.136Z,100.00
2023-04-23T06:14:03.906Z,100.00
2023-04-23T06:16:30.908Z,100.00
2023-04-23T06:18:57.812Z,100.00
2023-04-23T06:21:24.841Z,100.00
2023-04-23T06:23:51.628Z,100.00
2023-04-23T06:26:21.521Z,100.00
2023-04-23T06:28:48.239Z,100.00
2023-04-23T06:31:15.079Z,100.00
2023-04-23T06:33:41.922Z,100.00
2023-04-23T06:36:11.127Z,100.00
2023-04-23T06:38:38.472Z,100.00
2023-04-23T06:41:06.212Z,100.00
2023-04-23T06:43:32.984Z,100.00
2023-04-23T06:45:59.769Z,100.00
2023-04-23T06:48:26.596Z,100.00
2023-04-23T06:50:53.525Z,99.09
2023-04-23T06:53:20.116Z,98.54
2023-04-23T06:55:47.067Z,96.44
2023-04-23T06:58:14.843Z,96.29
2023-04-23T07:00:44.644Z,96.39
2023-04-23T07:03:11.838Z,95.32
2023-04-23T07:05:38.555Z,93.82
2023-04-23T07:08:05.589Z,93.33
2023-04-23T07:10:32.296Z,92.57
2023-04-23T07:12:58.872Z,93.52
2023-04-23T07:15:25.736Z,92.79
2023-04-23T07:17:52.341Z,93.19
2023-04-23T07:20:19.088Z,90.72
2023-04-23T07:22:47.138Z,91.22
2023-04-23T07:25:13.727Z,89.19
2023-04-23T07:27:40.522Z,89.66
2023-04-23T07:30:08.054Z,90.13
2023-04-23T07:32:35.220Z,89.32
2023-04-23T07:35:01.890Z,89.29
2023-04-23T07:37:28.690Z,87.91
2023-04-23T07:39:55.509Z,86.01
2023-04-23T07:42:22.150Z,85.85
2023-04-23T07:44:48.767Z,86.65
2023-04-23T07:47:15.787Z,87.14
2023-04-23T07:49:42.831Z,87.30
2023-04-23T07:52:09.938Z,85.42
2023-04-23T07:54:36.645Z,83.79
2023-04-23T07:57:03.308Z,84.18
2023-04-23T07:59:30.259Z,83.17
2023-04-23T08:01:56.774Z,81.00
2023-04-23T08:04:24.004Z,82.54
2023-04-23T08:06:51.051Z,82.95
2023-04-23T08:09:17.600Z,82.12
2023-04-23T08:11:44.421Z,83.06
2023-04-23T08:14:11.278Z,82.01
2023-04-23T08:16:39.075Z,80.62
2023-04-23T08:19:06.518Z,80.20
2023-04-23T08:21:33.662Z,82.17
2023-04-23T08:24:01.177Z,82.07
2023-04-23T08:26:27.838Z,79.04
2023-04-23T08:28:55.876Z,78.02
2023-04-23T08:31:26.825Z,76.86
2023-04-23T08:33:54.299Z,79.05
2023-04-23T08:36:21.050Z,77.11
2023-04-23T08:38:47.707Z,77.40
2023-04-23T08:41:17.365Z,75.38
2023-04-23T08:43:58.759Z,76.73
2023-04-23T08:46:31.096Z,77.56
2023-04-23T08:49:00.620Z,74.54
2023-04-23T08:51:30.636Z,76.59
2023-04-23T08:54:02.433Z,71.85
2023-04-23T08:56:30.432Z,74.12
2023-04-23T08:58:57.303Z,75.33
2023-04-23T09:01:24.203Z,71.61
2023-04-23T09:03:51.618Z,74.02
2023-04-23T09:06:19.910Z,72.56
2023-04-23T09:08:46.725Z,70.56
2023-04-23T09:11:14.528Z,72.44
2023-04-23T09:13:41.501Z,71.21
2023-04-23T09:16:10.359Z,70.66
2023-04-23T09:18:37.864Z,67.68
2023-04-23T09:21:05.005Z,67.74
2023-04-23T09:23:32.046Z,69.97
2023-04-23T09:25:58.709Z,66.82
2023-04-23T09:28:38.836Z,67.66
2023-04-23T09:31:08.826Z,68.54
2023-04-23T09:33:39.083Z,65.51
2023-04-23T09:36:15.903Z,69.27
2023-04-23T09:38:49.624Z,68.19
2023-04-23T09:41:27.407Z,63.57
2023-04-23T09:43:55.798Z,66.13
2023-04-23T09:46:42.562Z,67.51
2023-04-23T09:49:12.305Z,66.61
2023-04-23T09:51:47.860Z,68.12
2023-04-23T09:54:18.888Z,70.33
2023-04-23T09:56:51.034Z,67.99
2023-04-23T09:59:32.525Z,68.92
2023-04-23T10:02:07.840Z,65.53
2023-04-23T10:04:35.474Z,63.83
2023-04-23T10:07:18.031Z,67.63
2023-04-23T10:09:47.569Z,62.85
2023-04-23T10:14:46.448Z,65.76
2023-04-23T10:17:16.888Z,62.65
2023-04-23T10:19:45.011Z,60.00
2023-04-23T10:22:19.653Z,59.23
2023-04-23T10:24:53.193Z,63.77
2023-04-23T10:27:36.880Z,61.44
2023-04-23T10:30:14.564Z,62.59
2023-04-23T10:32:42.247Z,59.87
2023-04-23T10:35:10.065Z,60.16
2023-04-23T10:37:40.160Z,61.88
2023-04-23T10:40:14.307Z,60.82
2023-04-23T10:42:44.273Z,62.44
2023-04-23T10:45:23.054Z,59.24
2023-04-23T10:47:55.836Z,64.45
2023-04-23T10:50:30.739Z,63.58
2023-04-23T10:52:59.758Z,62.86
2023-04-23T10:55:28.866Z,59.79
2023-04-23T10:58:04.240Z,62.82
2023-04-23T11:00:46.789Z,62.36
2023-04-23T11:03:43.493Z,65.74
2023-04-23T11:06:15.752Z,60.78
2023-04-23T11:08:54.296Z,61.83
2023-04-23T11:11:40.233Z,60.42
2023-04-23T11:14:16.513Z,59.95
2023-04-23T11:16:43.161Z,61.59
2023-04-23T11:19:20.597Z,62.87
2023-04-23T11:22:00.782Z,59.99
2023-04-23T11:24:29.282Z,62.66
2023-04-23T11:26:56.555Z,62.63
2023-04-23T11:29:24.958Z,60.91
2023-04-23T11:32:02.239Z,60.15
2023-04-23T11:34:30.458Z,60.42
2023-04-23T11:36:59.481Z,59.02
2023-04-23T11:39:27.023Z,61.16
2023-04-23T11:41:54.794Z,60.83
2023-04-23T11:44:22.095Z,60.65
2023-04-23T11:46:50.161Z,58.66
2023-04-23T11:49:19.113Z,60.64
2023-04-23T11:51:46.809Z,60.99
2023-04-23T11:54:14.623Z,61.48
2023-04-23T11:56:41.979Z,60.26
2023-04-23T11:59:08.885Z,60.68
2023-04-23T12:01:43.949Z,59.15
2023-04-23T12:04:13.047Z,60.65
2023-04-23T12:06:42.840Z,59.06
2023-04-23T12:09:11.718Z,60.53
2023-04-23T12:11:39.360Z,58.41
2023-04-23T12:14:08.479Z,59.00
2023-04-23T12:16:44.287Z,55.91
2023-04-23T12:19:18.789Z,58.04
2023-04-23T12:21:56.609Z,58.65
2023-04-23T12:24:29.513Z,59.67
2023-04-23T12:27:00.463Z,58.35
2023-04-23T12:29:30.789Z,60.62
2023-04-23T12:31:59.610Z,57.51
2023-04-23T12:34:26.231Z,60.95
2023-04-23T12:36:55.734Z,61.62
2023-04-23T12:39:22.284Z,59.55
2023-04-23T12:41:53.880Z,59.85
2023-04-23T12:44:21.253Z,59.29
2023-04-23T12:46:59.422Z,60.10
2023-04-23T12:49:27.402Z,59.67
2023-04-23T12:51:57.401Z,60.44
2023-04-23T12:54:25.778Z,57.25
2023-04-23T12:56:52.928Z,59.00
2023-04-23T12:59:19.518Z,58.15
2023-04-23T13:01:46.099Z,60.03
2023-04-23T13:04:13.155Z,60.46
2023-04-23T13:06:40.441Z,59.46
2023-04-23T13:09:10.069Z,61.03
2023-04-23T13:11:40.780Z,62.23
2023-04-23T13:14:08.129Z,60.87
2023-04-23T13:16:34.972Z,61.74
2023-04-23T13:19:01.509Z,60.56
2023-04-23T13:21:28.048Z,61.82
2023-04-23T13:23:54.650Z,61.32
2023-04-23T13:26:21.482Z,61.27
2023-04-23T13:28:48.017Z,61.89
2023-04-23T13:31:14.703Z,62.03
2023-04-23T13:33:42.206Z,60.91
2023-04-23T13:36:09.532Z,62.04
2023-04-23T13:38:36.348Z,59.16
2023-04-23T13:41:02.999Z,62.39
2023-04-23T13:43:29.648Z,59.71
2023-04-23T13:45:56.234Z,60.91
2023-04-23T13:48:28.495Z,61.96
2023-04-23T13:50:55.776Z,62.93
2023-04-23T13:53:22.802Z,58.56
2023-04-23T13:55:49.806Z,62.19
2023-04-23T13:58:16.539Z,60.39
2023-04-23T14:00:43.808Z,60.61
2023-04-23T14:03:10.778Z,62.42
2023-04-23T14:05:38.319Z,60.52
2023-04-23T14:08:05.061Z,60.28
2023-04-23T14:10:33.232Z,61.35
2023-04-23T14:12:59.847Z,60.07
2023-04-23T14:15:26.545Z,63.28
2023-04-23T14:17:53.155Z,59.27
2023-04-23T14:20:20.724Z,60.77
2023-04-23T14:22:55.604Z,60.63
2023-04-23T14:25:34.423Z,61.23
2023-04-23T14:28:11.653Z,61.10
2023-04-23T14:30:40.833Z,61.25
2023-04-23T14:33:07.681Z,63.07
2023-04-23T14:35:43.093Z,62.05
2023-04-23T14:38:10.582Z,63.37
2023-04-23T14:40:37.226Z,64.08
2023-04-23T14:43:14.464Z,65.22
2023-04-23T14:45:41.866Z,63.14
2023-04-23T14:48:08.424Z,64.21
2023-04-23T14:50:38.388Z,64.10
2023-04-23T14:53:07.344Z,66.74
2023-04-23T14:55:34.391Z,66.42
2023-04-23T14:58:01.323Z,69.25
2023-04-23T15:00:28.654Z,72.92
2023-04-23T15:02:56.765Z,73.80
2023-04-23T15:05:23.831Z,76.23
2023-04-23T15:07:51.632Z,77.09
2023-04-23T15:10:18.955Z,78.87
2023-04-23T15:12:56.813Z,80.73
2023-04-23T15:15:43.824Z,81.55
2023-04-23T15:18:17.150Z,82.11
2023-04-23T15:20:44.444Z,82.50
2023-04-23T15:23:11.431Z,83.95
2023-04-23T15:25:39.425Z,84.27
2023-04-23T15:28:07.027Z,84.84
2023-04-23T15:30:43.578Z,84.63
2023-04-23T15:33:11.167Z,85.88
2023-04-23T15:35:42.642Z,85.70
2023-04-23T15:38:09.931Z,87.14
2023-04-23T15:40:42.084Z,86.68
2023-04-23T15:43:13.893Z,86.51
2023-04-23T15:45:40.821Z,86.63
2023-04-23T15:48:07.876Z,87.15
2023-04-23T15:50:35.448Z,87.19
2023-04-23T15:53:02.566Z,87.80
2023-04-23T15:55:29.612Z,87.53
2023-04-23T15:57:57.834Z,88.43
2023-04-23T16:00:24.591Z,88.34
2023-04-23T16:02:51.582Z,88.32
2023-04-23T16:05:19.013Z,88.73
2023-04-23T16:07:45.894Z,89.28
2023-04-23T16:10:12.621Z,88.63
2023-04-23T16:12:45.379Z,89.13
2023-04-23T16:15:13.017Z,88.76
2023-04-23T16:17:40.189Z,88.41
2023-04-23T16:20:10.849Z,88.70
2023-04-23T16:22:37.424Z,88.97
2023-04-23T16:25:04.894Z,89.62
2023-04-23T16:27:31.756Z,89.28
2023-04-23T16:29:58.568Z,90.01
2023-04-23T16:32:25.672Z,89.33
2023-04-23T16:34:52.483Z,90.21
2023-04-23T16:37:19.250Z,89.65
2023-04-23T16:39:45.978Z,90.12
2023-04-23T16:42:12.741Z,90.33
2023-04-23T16:44:43.033Z,89.86
2023-04-23T16:47:09.991Z,90.58
2023-04-23T16:49:39.628Z,91.05
2023-04-23T16:52:06.392Z,91.02
2023-04-23T16:54:34.203Z,90.78
2023-04-23T16:57:01.707Z,90.30
2023-04-23T16:59:28.795Z,89.33
2023-04-23T17:01:56.106Z,90.83
2023-04-23T17:04:23.110Z,90.67
2023-04-23T17:06:50.905Z,90.62
2023-04-23T17:09:18.432Z,90.52
2023-04-23T17:11:45.140Z,90.54
2023-04-23T17:14:12.984Z,90.12
2023-04-23T17:16:39.870Z,91.00
2023-04-23T17:19:06.571Z,90.39
2023-04-23T17:21:33.464Z,90.17
2023-04-23T17:24:00.189Z,90.33
2023-04-23T17:26:26.881Z,90.06
2023-04-23T17:28:53.506Z,90.27
2023-04-23T17:31:20.831Z,90.12
2023-04-23T17:33:49.451Z,90.99
2023-04-23T17:36:17.190Z,90.56
2023-04-23T17:38:43.786Z,90.76
2023-04-23T17:41:10.416Z,90.15
2023-04-23T17:43:37.110Z,90.15
2023-04-23T17:46:03.839Z,90.54
2023-04-23T17:48:30.618Z,90.72
2023-04-23T17:50:57.471Z,90.84
2023-04-23T17:53:24.148Z,91.05
2023-04-23T17:55:50.765Z,91.50
2023-04-23T17:58:19.222Z,91.83
2023-04-23T18:00:46.177Z,91.58
2023-04-23T18:03:16.603Z,91.34
2023-04-23T18:05:43.553Z,91.22
2023-04-23T18:08:10.332Z,91.95
2023-04-23T18:10:37.004Z,92.47
2023-04-23T18:13:05.258Z,91.84
2023-04-23T18:15:32.393Z,92.25
2023-04-23T18:17:59.731Z,92.13
2023-04-23T18:20:26.869Z,92.33
2023-04-23T18:22:54.398Z,92.47
2023-04-23T18:25:21.238Z,92.42
2023-04-23T18:27:48.680Z,92.95
2023-04-23T18:30:15.452Z,92.56
2023-04-23T18:32:47.879Z,92.75
2023-04-23T18:35:14.869Z,92.74
2023-04-23T18:37:41.458Z,92.55
2023-04-23T18:40:09.161Z,93.16
2023-04-23T18:42:35.897Z,93.75
2023-04-23T18:45:04.192Z,94.12
2023-04-23T18:47:36.769Z,94.13
2023-04-23T18:50:09.333Z,93.89
2023-04-23T18:52:36.292Z,93.35
2023-04-23T18:55:03.327Z,94.40
2023-04-23T18:57:29.924Z,93.93
2023-04-23T18:59:56.613Z,94.36
2023-04-23T19:02:35.339Z,94.24
2023-04-23T19:05:03.646Z,94.17
2023-04-23T19:07:30.302Z,94.22
2023-04-23T19:09:57.002Z,93.89
2023-04-23T19:12:23.620Z,93.84
2023-04-23T19:14:50.193Z,94.22
2023-04-23T19:17:18.781Z,93.80
2023-04-23T19:19:46.526Z,94.12
2023-04-23T19:22:13.171Z,93.97
2023-04-23T19:24:39.765Z,94.36
2023-04-23T19:27:07.317Z,94.24
2023-04-23T19:29:33.959Z,94.42
2023-04-23T19:32:00.825Z,94.81
2023-04-23T19:34:27.498Z,94.26
2023-04-23T19:36:54.080Z,94.39
2023-04-23T19:39:23.167Z,94.48
2023-04-23T19:41:49.769Z,95.32
2023-04-23T19:44:16.416Z,94.77
2023-04-23T19:46:43.161Z,94.58
2023-04-23T19:49:10.063Z,94.45
2023-04-23T19:51:38.193Z,95.34
2023-04-23T19:54:06.263Z,95.58
2023-04-23T19:56:32.926Z,95.15
2023-04-23T19:58:59.640Z,94.49
2023-04-23T20:01:28.397Z,94.81
2023-04-23T20:03:55.742Z,94.87
2023-04-23T20:06:22.458Z,95.57
2023-04-23T20:09:06.880Z,94.38
2023-04-23T20:11:35.899Z,95.00
2023-04-23T20:14:03.263Z,95.20
2023-04-23T20:16:30.930Z,95.61
2023-04-23T20:18:57.875Z,96.84
2023-04-23T20:21:25.178Z,96.27
2023-04-23T20:23:52.008Z,97.51
2023-04-23T20:26:20.000Z,96.28
2023-04-23T20:28:48.339Z,96.65
2023-04-23T20:31:15.630Z,96.92
2023-04-23T20:33:42.258Z,96.85
2023-04-23T20:36:10.763Z,96.90
2023-04-23T20:38:38.919Z,97.63
2023-04-23T20:41:06.140Z,96.91
2023-04-23T20:43:34.838Z,96.90
2023-04-23T20:46:02.116Z,96.67
2023-04-23T20:48:29.990Z,97.20
2023-04-23T20:50:58.091Z,97.86
2023-04-23T20:53:25.616Z,97.81
2023-04-23T20:55:52.375Z,96.95
2023-04-23T20:58:19.016Z,97.28
2023-04-23T21:00:45.907Z,97.96
2023-04-23T21:03:12.887Z,97.22
2023-04-23T21:05:44.171Z,97.04
2023-04-23T21:08:11.560Z,97.08
2023-04-23T21:10:38.972Z,97.47
2023-04-23T21:13:08.104Z,98.04
2023-04-23T21:15:35.637Z,96.90
2023-04-23T21:18:02.794Z,97.68
2023-04-23T21:20:29.573Z,97.33
2023-04-23T21:22:56.153Z,97.27
2023-04-23T21:25:22.831Z,97.14
2023-04-23T21:27:51.921Z,96.66
2023-04-23T21:30:46.723Z,96.83
2023-04-23T21:33:14.035Z,97.24
2023-04-23T21:35:40.942Z,97.68
2023-04-23T21:38:08.997Z,97.03
2023-04-23T21:40:37.601Z,97.95
2023-04-23T21:43:05.684Z,97.85
2023-04-23T21:45:33.727Z,97.95
2023-04-23T21:48:01.610Z,98.45
2023-04-23T21:50:30.804Z,98.49
2023-04-23T21:52:58.795Z,98.57
2023-04-23T21:55:27.264Z,98.75
2023-04-23T21:57:56.425Z,98.85
2023-04-23T22:00:25.668Z,98.91
2023-04-23T22:02:55.139Z,98.75
2023-04-23T22:05:23.531Z,99.02
2023-04-23T22:07:55.352Z,99.16
2023-04-23T22:10:22.826Z,99.34
2023-04-23T22:12:50.391Z,99.60
2023-04-23T22:15:18.792Z,99.41
2023-04-23T22:17:50.190Z,99.58
2023-04-23T22:20:19.170Z,99.65
2023-04-23T22:22:46.925Z,99.64
2023-04-23T22:25:13.988Z,100.00
2023-04-23T22:27:41.903Z,99.84
2023-04-23T22:30:10.979Z,99.93
2023-04-23T22:32:39.405Z,100.00
2023-04-23T22:35:07.932Z,100.00
2023-04-23T22:37:35.413Z,100.00
2023-04-23T22:40:04.152Z,100.00
2023-04-23T22:42:31.111Z,100.00
2023-04-23T22:44:57.960Z,100.00
2023-04-23T22:47:25.145Z,100.00
2023-04-23T22:49:51.835Z,100.00
2023-04-23T22:52:18.572Z,100.00
2023-04-23T22:54:45.502Z,100.00
2023-04-23T22:57:12.971Z,100.00
2023-04-23T22:59:40.353Z,100.00
2023-04-23T23:02:08.049Z,100.00
2023-04-23T23:04:37.876Z,100.00
2023-04-23T23:07:08.539Z,100.00
2023-04-23T23:09:35.235Z,100.00
2023-04-23T23:12:03.844Z,100.00
2023-04-23T23:14:33.215Z,100.00
2023-04-23T23:16:59.994Z,100.00
2023-04-23T23:19:27.802Z,100.00
2023-04-23T23:21:54.424Z,100.00
2023-04-23T23:24:22.481Z,100.00
2023-04-23T23:26:50.773Z,100.00
2023-04-23T23:29:17.432Z,100.00
2023-04-23T23:31:44.459Z,100.00
2023-04-23T23:34:12.045Z,100.00
2023-04-23T23:36:38.812Z,100.00
2023-04-23T23:39:06.890Z,100.00
2023-04-23T23:41:33.603Z,100.00
2023-04-23T23:44:00.598Z,100.00
2023-04-23T23:46:27.938Z,100.00
2023-04-23T23:48:54.996Z,100.00
2023-04-23T23:51:21.873Z,100.00
2023-04-23T23:53:48.908Z,100.00
2023-04-23T23:56:15.959Z,100.00
2023-04-23T23:58:42.584Z,100.00
